createdAt,value
2018-03-27T00:00:20.091Z,1009.22
2018-03-27T00:01:20.100Z,1009.20
2018-03-27T00:02:20.122Z,1009.26
2018-03-27T00:03:20.144Z,1009.31
2018-03-27T00:04:20.159Z,1009.29
2018-03-27T00:05:20.196Z,1009.31
2018-03-27T00:06:20.193Z,1009.30
2018-03-27T00:07:20.210Z,1009.36
2018-03-27T00:08:20.226Z,1009.31
2018-03-27T00:09:20.240Z,1009.30
2018-03-27T00:10:20.266Z,1009.37
2018-03-27T00:11:20.275Z,1009.32
2018-03-27T00:12:20.295Z,1009.27
2018-03-27T00:13:20.315Z,1009.23
2018-03-27T00:14:20.333Z,1009.21
2018-03-27T00:15:20.348Z,1009.23
2018-03-27T00:16:20.373Z,1009.26
2018-03-27T00:17:20.382Z,1009.25
2018-03-27T00:18:20.400Z,1009.25
2018-03-27T00:19:20.423Z,1009.28
2018-03-27T00:20:20.438Z,1009.26
2018-03-27T00:21:20.453Z,1009.21
2018-03-27T00:22:20.474Z,1009.25
2018-03-27T00:23:20.484Z,1009.21
2018-03-27T00:24:20.504Z,1009.17
2018-03-27T00:25:20.524Z,1009.23
2018-03-27T00:26:20.540Z,1009.23
2018-03-27T00:27:20.560Z,1009.23
2018-03-27T00:28:20.576Z,1009.24
2018-03-27T00:29:20.588Z,1009.22
2018-03-27T00:30:20.611Z,1009.25
2018-03-27T00:31:20.631Z,1009.19
2018-03-27T00:32:20.641Z,1009.18
2018-03-27T00:33:20.665Z,1009.23
2018-03-27T00:34:20.684Z,1009.20
2018-03-27T00:35:20.700Z,1009.23
2018-03-27T00:36:20.716Z,1009.24
2018-03-27T00:37:20.732Z,1009.24
2018-03-27T00:38:20.751Z,1009.19
2018-03-27T00:39:20.766Z,1009.19
2018-03-27T00:40:20.787Z,1009.13
2018-03-27T00:41:20.800Z,1009.15
2018-03-27T00:42:20.821Z,1009.14
2018-03-27T00:43:20.836Z,1009.20
2018-03-27T00:44:20.857Z,1009.16
2018-03-27T00:45:20.876Z,1009.14
2018-03-27T00:46:20.888Z,1009.16
2018-03-27T00:47:20.903Z,1009.17
2018-03-27T00:48:20.928Z,1009.18
2018-03-27T00:49:20.938Z,1009.18
2018-03-27T00:50:20.962Z,1009.17
2018-03-27T00:51:20.976Z,1009.16
2018-03-27T00:52:20.995Z,1009.18
2018-03-27T00:53:21.011Z,1009.21
2018-03-27T00:54:21.028Z,1009.17
2018-03-27T00:55:21.050Z,1009.18
2018-03-27T00:56:21.063Z,1009.14
2018-03-27T00:57:21.084Z,1009.17
2018-03-27T00:58:21.098Z,1009.14
2018-03-27T00:59:21.118Z,1009.19
2018-03-27T01:00:21.140Z,1009.18
2018-03-27T01:01:21.147Z,1009.18
2018-03-27T01:02:21.165Z,1009.20
2018-03-27T01:03:21.192Z,1009.18
2018-03-27T01:04:21.203Z,1009.20
2018-03-27T01:05:21.227Z,1009.15
2018-03-27T01:06:21.238Z,1009.19
2018-03-27T01:07:21.286Z,1009.19
2018-03-27T01:08:21.279Z,1009.20
2018-03-27T01:09:21.287Z,1009.12
2018-03-27T01:10:21.312Z,1009.16
2018-03-27T01:11:21.327Z,1009.16
2018-03-27T01:12:21.341Z,1009.08
2018-03-27T01:13:21.368Z,1009.11
2018-03-27T01:14:21.376Z,1009.06
2018-03-27T01:15:21.407Z,1009.11
2018-03-27T01:16:21.412Z,1009.07
2018-03-27T01:17:21.436Z,1009.05
2018-03-27T01:18:21.449Z,1009.05
2018-03-27T01:19:21.469Z,1009.11
2018-03-27T01:20:21.489Z,1009.08
2018-03-27T01:21:21.498Z,1009.07
2018-03-27T01:22:21.515Z,1009.07
2018-03-27T01:23:21.542Z,1009.02
2018-03-27T01:24:21.558Z,1009.02
2018-03-27T01:25:21.570Z,1009.06
2018-03-27T01:26:21.594Z,1009.02
2018-03-27T01:27:21.605Z,1009.04
2018-03-27T01:28:21.624Z,1008.99
2018-03-27T01:29:21.643Z,1008.96
2018-03-27T01:30:21.664Z,1008.96
2018-03-27T01:31:21.674Z,1008.97
2018-03-27T01:32:21.699Z,1008.91
2018-03-27T01:33:21.714Z,1008.92
2018-03-27T01:34:21.746Z,1008.89
2018-03-27T01:35:21.754Z,1008.85
2018-03-27T01:36:21.768Z,1008.87
2018-03-27T01:37:21.782Z,1008.85
2018-03-27T01:38:21.800Z,1008.85
2018-03-27T01:39:21.820Z,1008.86
2018-03-27T01:40:21.836Z,1008.86
2018-03-27T01:41:21.854Z,1008.81
2018-03-27T01:42:21.873Z,1008.86
2018-03-27T01:43:21.888Z,1008.82
2018-03-27T01:44:21.909Z,1008.82
2018-03-27T01:45:21.923Z,1008.83
2018-03-27T01:46:21.943Z,1008.81
2018-03-27T01:47:21.959Z,1008.74
2018-03-27T01:48:21.980Z,1008.75
2018-03-27T01:49:21.994Z,1008.74
2018-03-27T01:50:22.017Z,1008.72
2018-03-27T01:51:22.033Z,1008.74
2018-03-27T01:52:22.047Z,1008.72
2018-03-27T01:53:22.068Z,1008.60
2018-03-27T01:54:22.090Z,1008.61
2018-03-27T01:55:22.100Z,1008.62
2018-03-27T01:56:22.122Z,1008.60
2018-03-27T01:57:22.140Z,1008.58
2018-03-27T01:58:22.154Z,1008.60
2018-03-27T01:59:22.174Z,1008.62
2018-03-27T02:00:22.189Z,1008.63
2018-03-27T02:01:22.210Z,1008.61
2018-03-27T02:02:22.229Z,1008.66
2018-03-27T02:03:22.240Z,1008.62
2018-03-27T02:04:22.266Z,1008.59
2018-03-27T02:05:22.276Z,1008.58
2018-03-27T02:06:22.293Z,1008.54
2018-03-27T02:07:22.319Z,1008.57
2018-03-27T02:08:22.329Z,1008.52
2018-03-27T02:09:22.357Z,1008.55
2018-03-27T02:10:22.367Z,1008.54
2018-03-27T02:11:22.387Z,1008.55
2018-03-27T02:12:22.408Z,1008.54
2018-03-27T02:13:22.417Z,1008.57
2018-03-27T02:14:22.444Z,1008.58
2018-03-27T02:15:22.456Z,1008.51
2018-03-27T02:16:22.471Z,1008.52
2018-03-27T02:17:22.496Z,1008.56
2018-03-27T02:18:22.507Z,1008.52
2018-03-27T02:19:22.532Z,1008.54
2018-03-27T02:20:22.549Z,1008.54
2018-03-27T02:21:22.563Z,1008.56
2018-03-27T02:22:22.585Z,1008.53
2018-03-27T02:23:22.595Z,1008.54
2018-03-27T02:24:22.616Z,1008.56
2018-03-27T02:25:22.636Z,1008.55
2018-03-27T02:26:22.653Z,1008.51
2018-03-27T02:27:22.670Z,1008.52
2018-03-27T02:28:22.684Z,1008.52
2018-03-27T02:29:22.716Z,1008.54
2018-03-27T02:30:22.726Z,1008.56
2018-03-27T02:31:22.743Z,1008.51
2018-03-27T02:32:22.764Z,1008.52
2018-03-27T02:33:22.773Z,1008.51
2018-03-27T02:34:22.798Z,1008.51
2018-03-27T02:35:22.809Z,1008.51
2018-03-27T02:36:22.828Z,1008.49
2018-03-27T02:37:22.843Z,1008.50
2018-03-27T02:38:22.863Z,1008.51
2018-03-27T02:39:22.885Z,1008.52
2018-03-27T02:40:22.898Z,1008.46
2018-03-27T02:41:22.923Z,1008.49
2018-03-27T02:42:22.938Z,1008.48
2018-03-27T02:43:22.956Z,1008.47
2018-03-27T02:44:22.972Z,1008.47
2018-03-27T02:45:22.993Z,1008.44
2018-03-27T02:46:23.012Z,1008.45
2018-03-27T02:47:23.025Z,1008.43
2018-03-27T02:48:23.046Z,1008.47
2018-03-27T02:49:23.060Z,1008.44
2018-03-27T02:50:23.088Z,1008.43
2018-03-27T02:51:23.096Z,1008.44
2018-03-27T02:52:23.116Z,1008.44
2018-03-27T02:53:23.135Z,1008.40
2018-03-27T02:54:23.151Z,1008.37
2018-03-27T02:55:23.166Z,1008.35
2018-03-27T02:56:23.191Z,1008.35
2018-03-27T02:57:23.199Z,1008.37
2018-03-27T02:58:23.223Z,1008.31
2018-03-27T02:59:23.241Z,1008.36
2018-03-27T03:00:23.255Z,1008.34
2018-03-27T03:01:23.280Z,1008.33
2018-03-27T03:02:23.293Z,1008.32
2018-03-27T03:03:23.315Z,1008.28
2018-03-27T03:04:23.333Z,1008.26
2018-03-27T03:05:23.348Z,1008.29
2018-03-27T03:06:23.369Z,1008.28
2018-03-27T03:07:23.378Z,1008.29
2018-03-27T03:08:23.405Z,1008.30
2018-03-27T03:09:23.416Z,1008.31
2018-03-27T03:10:23.431Z,1008.29
2018-03-27T03:11:23.452Z,1008.31
2018-03-27T03:12:23.468Z,1008.29
2018-03-27T03:13:23.489Z,1008.26
2018-03-27T03:14:23.505Z,1008.26
2018-03-27T03:15:23.526Z,1008.27
2018-03-27T03:16:23.547Z,1008.26
2018-03-27T03:17:23.557Z,1008.25
2018-03-27T03:18:23.578Z,1008.27
2018-03-27T03:19:23.627Z,1008.27
2018-03-27T03:20:23.610Z,1008.27
2018-03-27T03:21:23.636Z,1008.26
2018-03-27T03:22:23.649Z,1008.31
2018-03-27T03:23:23.664Z,1008.31
2018-03-27T03:24:23.680Z,1008.26
2018-03-27T03:25:23.698Z,1008.29
2018-03-27T03:26:23.718Z,1008.32
2018-03-27T03:27:23.732Z,1008.37
2018-03-27T03:28:23.752Z,1008.36
2018-03-27T03:29:23.772Z,1008.33
2018-03-27T03:30:23.792Z,1008.35
2018-03-27T03:31:23.855Z,1008.35
2018-03-27T03:32:23.820Z,1008.33
2018-03-27T03:33:23.844Z,1008.30
2018-03-27T03:34:23.858Z,1008.36
2018-03-27T03:35:23.878Z,1008.38
2018-03-27T03:36:23.898Z,1008.38
2018-03-27T03:37:23.906Z,1008.36
2018-03-27T03:38:23.927Z,1008.41
2018-03-27T03:39:23.950Z,1008.42
2018-03-27T03:40:23.962Z,1008.37
2018-03-27T03:41:23.975Z,1008.38
2018-03-27T03:42:23.994Z,1008.40
2018-03-27T03:43:24.014Z,1008.38
2018-03-27T03:44:24.028Z,1008.39
2018-03-27T03:45:24.053Z,1008.41
2018-03-27T03:46:24.064Z,1008.38
2018-03-27T03:47:24.085Z,1008.35
2018-03-27T03:48:24.100Z,1008.36
2018-03-27T03:49:24.120Z,1008.33
2018-03-27T03:50:24.138Z,1008.41
2018-03-27T03:51:24.152Z,1008.33
2018-03-27T03:52:24.173Z,1008.40
2018-03-27T03:53:24.187Z,1008.36
2018-03-27T03:54:24.207Z,1008.28
2018-03-27T03:55:24.221Z,1008.35
2018-03-27T03:56:24.237Z,1008.29
2018-03-27T03:57:24.255Z,1008.27
2018-03-27T03:58:24.279Z,1008.29
2018-03-27T03:59:24.294Z,1008.29
2018-03-27T04:00:24.363Z,1008.30
2018-03-27T04:01:24.328Z,1008.26
2018-03-27T04:02:24.345Z,1008.29
2018-03-27T04:03:24.365Z,1008.26
2018-03-27T04:04:24.374Z,1008.21
2018-03-27T04:05:24.400Z,1008.26
2018-03-27T04:06:24.411Z,1008.23
2018-03-27T04:07:24.432Z,1008.22
2018-03-27T04:08:24.453Z,1008.20
2018-03-27T04:09:24.461Z,1008.24
2018-03-27T04:10:24.483Z,1008.20
2018-03-27T04:11:24.509Z,1008.21
2018-03-27T04:12:24.516Z,1008.21
2018-03-27T04:13:24.535Z,1008.19
2018-03-27T04:14:24.547Z,1008.17
2018-03-27T04:15:24.567Z,1008.19
2018-03-27T04:16:24.587Z,1008.21
2018-03-27T04:17:24.606Z,1008.23
2018-03-27T04:18:24.618Z,1008.26
2018-03-27T04:19:24.639Z,1008.25
2018-03-27T04:20:24.659Z,1008.23
2018-03-27T04:21:24.666Z,1008.18
2018-03-27T04:22:24.695Z,1008.21
2018-03-27T04:23:24.705Z,1008.26
2018-03-27T04:24:24.720Z,1008.19
2018-03-27T04:25:24.743Z,1008.20
2018-03-27T04:26:24.758Z,1008.22
2018-03-27T04:27:24.772Z,1008.24
2018-03-27T04:28:24.792Z,1008.21
2018-03-27T04:29:24.805Z,1008.14
2018-03-27T04:30:24.828Z,1008.20
2018-03-27T04:31:24.843Z,1008.24
2018-03-27T04:32:24.857Z,1008.23
2018-03-27T04:33:24.871Z,1008.23
2018-03-27T04:34:24.896Z,1008.17
2018-03-27T04:35:24.905Z,1008.16
2018-03-27T04:36:24.930Z,1008.16
2018-03-27T04:37:24.939Z,1008.13
2018-03-27T04:38:24.955Z,1008.11
2018-03-27T04:39:24.986Z,1008.10
2018-03-27T04:40:24.990Z,1008.14
2018-03-27T04:41:25.016Z,1008.06
2018-03-27T04:42:25.030Z,1008.08
2018-03-27T04:43:25.044Z,1008.08
2018-03-27T04:44:25.063Z,1008.09
2018-03-27T04:45:25.078Z,1008.06
2018-03-27T04:46:25.094Z,1008.01
2018-03-27T04:47:25.117Z,1008.02
2018-03-27T04:48:25.131Z,1008.04
2018-03-27T04:49:25.148Z,1008.05
2018-03-27T04:50:25.159Z,1008.08
2018-03-27T04:51:25.184Z,1007.99
2018-03-27T04:52:25.204Z,1008.07
2018-03-27T04:53:25.214Z,1008.03
2018-03-27T04:54:25.235Z,1008.01
2018-03-27T04:55:25.244Z,1008.07
2018-03-27T04:56:25.265Z,1008.07
2018-03-27T04:57:25.284Z,1008.10
2018-03-27T04:58:25.301Z,1008.11
2018-03-27T04:59:25.318Z,1008.16
2018-03-27T05:00:25.338Z,1008.10
2018-03-27T05:01:25.345Z,1008.12
2018-03-27T05:02:25.397Z,1008.15
2018-03-27T05:03:25.449Z,1008.17
2018-03-27T05:04:25.397Z,1008.14
2018-03-27T05:05:25.421Z,1008.17
2018-03-27T05:06:25.461Z,1008.15
2018-03-27T05:07:25.454Z,1008.18
2018-03-27T05:08:25.472Z,1008.16
2018-03-27T05:09:25.556Z,1008.14
2018-03-27T05:10:25.504Z,1008.08
2018-03-27T05:11:25.520Z,1008.09
2018-03-27T05:12:25.532Z,1008.12
2018-03-27T05:13:25.557Z,1008.16
2018-03-27T05:14:25.605Z,1008.11
2018-03-27T05:15:25.584Z,1008.12
2018-03-27T05:16:25.608Z,1008.09
2018-03-27T05:17:25.620Z,1008.09
2018-03-27T05:18:25.649Z,1008.16
2018-03-27T05:19:25.726Z,1008.11
2018-03-27T05:20:25.670Z,1008.11
2018-03-27T05:21:25.690Z,1008.12
2018-03-27T05:22:25.705Z,1008.09
2018-03-27T05:23:25.726Z,1008.09
2018-03-27T05:24:25.735Z,1008.12
2018-03-27T05:25:25.759Z,1008.13
2018-03-27T05:26:25.792Z,1008.11
2018-03-27T05:27:25.786Z,1008.12
2018-03-27T05:28:25.810Z,1008.12
2018-03-27T05:29:25.822Z,1008.13
2018-03-27T05:30:25.843Z,1008.12
2018-03-27T05:31:25.852Z,1008.11
2018-03-27T05:32:25.873Z,1008.13
2018-03-27T05:33:25.891Z,1008.15
2018-03-27T05:34:25.908Z,1008.16
2018-03-27T05:35:25.928Z,1008.10
2018-03-27T05:36:25.945Z,1008.09
2018-03-27T05:37:25.964Z,1008.07
2018-03-27T05:38:25.979Z,1008.12
2018-03-27T05:39:25.986Z,1008.17
2018-03-27T05:40:26.012Z,1008.12
2018-03-27T05:41:26.020Z,1008.17
2018-03-27T05:42:26.036Z,1008.22
2018-03-27T05:43:26.061Z,1008.17
2018-03-27T05:44:26.071Z,1008.19
2018-03-27T05:45:26.097Z,1008.17
2018-03-27T05:46:26.103Z,1008.25
2018-03-27T05:47:26.132Z,1008.18
2018-03-27T05:48:26.148Z,1008.20
2018-03-27T05:49:26.162Z,1008.17
2018-03-27T05:50:26.171Z,1008.19
2018-03-27T05:51:26.193Z,1008.23
2018-03-27T05:52:26.207Z,1008.19
2018-03-27T05:53:26.225Z,1008.16
2018-03-27T05:54:26.237Z,1008.18
2018-03-27T05:55:26.262Z,1008.19
2018-03-27T05:56:26.278Z,1008.12
2018-03-27T05:57:26.290Z,1008.07
2018-03-27T05:58:26.312Z,1008.08
2018-03-27T05:59:26.322Z,1008.09
2018-03-27T06:00:26.341Z,1008.11
2018-03-27T06:01:26.363Z,1008.09
2018-03-27T06:02:26.372Z,1008.05
2018-03-27T06:03:26.395Z,1008.08
2018-03-27T06:04:26.410Z,1008.08
2018-03-27T06:05:26.426Z,1008.04
2018-03-27T06:06:26.438Z,1008.07
2018-03-27T06:07:26.462Z,1008.05
2018-03-27T06:08:26.476Z,1008.08
2018-03-27T06:09:26.491Z,1008.05
2018-03-27T06:10:26.511Z,1008.01
2018-03-27T06:11:26.527Z,1008.06
2018-03-27T06:12:26.546Z,1008.07
2018-03-27T06:13:26.554Z,1008.09
2018-03-27T06:14:26.581Z,1008.07
2018-03-27T06:15:26.594Z,1008.05
2018-03-27T06:16:26.612Z,1008.04
2018-03-27T06:17:26.629Z,1008.05
2018-03-27T06:18:26.646Z,1008.03
2018-03-27T06:19:26.662Z,1008.02
2018-03-27T06:20:26.673Z,1008.08
2018-03-27T06:21:26.696Z,1008.09
2018-03-27T06:22:26.713Z,1008.08
2018-03-27T06:23:26.728Z,1008.06
2018-03-27T06:24:26.752Z,1008.09
2018-03-27T06:25:26.761Z,1008.43
2018-03-27T06:26:26.777Z,1009.26
2018-03-27T06:27:26.819Z,1009.52
2018-03-27T06:28:26.806Z,1009.49
2018-03-27T06:29:26.831Z,1009.61
2018-03-27T06:30:26.855Z,1009.93
2018-03-27T06:31:26.856Z,1010.00
2018-03-27T06:32:26.881Z,1010.18
2018-03-27T06:33:26.893Z,1010.02
2018-03-27T06:34:26.916Z,1010.04
2018-03-27T06:35:26.924Z,1009.97
2018-03-27T06:36:26.949Z,1010.00
2018-03-27T06:37:26.963Z,1008.81
2018-03-27T06:38:26.976Z,1008.35
2018-03-27T06:39:26.998Z,1008.58
2018-03-27T06:40:27.017Z,1008.40
2018-03-27T06:41:27.034Z,1008.29
2018-03-27T06:42:27.056Z,1008.48
2018-03-27T06:43:27.063Z,1008.73
2018-03-27T06:44:27.086Z,1008.25
2018-03-27T06:45:27.104Z,1008.21
2018-03-27T06:46:27.116Z,1008.24
2018-03-27T06:47:27.142Z,1008.17
2018-03-27T06:48:27.158Z,1008.20
2018-03-27T06:49:27.172Z,1008.35
2018-03-27T06:50:27.186Z,1008.10
2018-03-27T06:51:27.215Z,1008.15
2018-03-27T06:52:27.223Z,1008.29
2018-03-27T06:53:27.240Z,1008.38
2018-03-27T06:54:27.260Z,1008.17
2018-03-27T06:55:27.275Z,1008.06
2018-03-27T06:56:27.347Z,1008.18
2018-03-27T06:57:27.315Z,1008.22
2018-03-27T06:58:27.328Z,1008.42
2018-03-27T06:59:27.353Z,1008.32
2018-03-27T07:00:27.375Z,1008.42
2018-03-27T07:01:27.384Z,1008.40
2018-03-27T07:02:27.408Z,1008.94
2018-03-27T07:03:27.453Z,1008.20
2018-03-27T07:04:27.464Z,1008.26
2018-03-27T07:05:27.517Z,1008.76
2018-03-27T07:06:27.478Z,1008.32
2018-03-27T07:07:27.489Z,1008.67
2018-03-27T07:08:27.517Z,1008.85
2018-03-27T07:09:27.534Z,1009.02
2018-03-27T07:10:27.553Z,1009.19
2018-03-27T07:11:27.571Z,1008.98
2018-03-27T07:12:27.588Z,1008.60
2018-03-27T07:13:27.603Z,1008.54
2018-03-27T07:14:27.634Z,1008.59
2018-03-27T07:15:27.637Z,1008.18
2018-03-27T07:16:27.663Z,1008.55
2018-03-27T07:17:27.681Z,1008.43
2018-03-27T07:18:27.694Z,1008.62
2018-03-27T07:19:27.724Z,1008.46
2018-03-27T07:20:27.781Z,1008.84
2018-03-27T07:21:27.755Z,1008.57
2018-03-27T07:22:27.778Z,1008.50
2018-03-27T07:23:27.801Z,1007.95
2018-03-27T07:24:27.811Z,1007.90
2018-03-27T07:25:27.838Z,1007.90
2018-03-27T07:26:27.853Z,1007.91
2018-03-27T07:27:27.875Z,1007.92
2018-03-27T07:28:27.903Z,1007.92
2018-03-27T07:29:27.914Z,1007.86
2018-03-27T07:30:27.929Z,1007.85
2018-03-27T07:31:27.957Z,1007.82
2018-03-27T07:32:28.026Z,1007.83
2018-03-27T07:33:27.996Z,1007.86
2018-03-27T07:34:28.015Z,1007.89
2018-03-27T07:35:28.027Z,1007.76
2018-03-27T07:36:28.055Z,1007.76
2018-03-27T07:37:28.069Z,1007.79
2018-03-27T07:38:28.094Z,1007.74
2018-03-27T07:39:28.105Z,1007.80
2018-03-27T07:40:28.154Z,1007.72
2018-03-27T07:41:28.150Z,1007.71
2018-03-27T07:42:28.167Z,1007.78
2018-03-27T07:43:28.189Z,1007.79
2018-03-27T07:44:28.206Z,1007.79
2018-03-27T07:45:28.228Z,1007.77
2018-03-27T07:46:28.246Z,1007.74
2018-03-27T07:47:28.261Z,1007.74
2018-03-27T07:48:28.280Z,1007.79
2018-03-27T07:49:28.335Z,1007.76
2018-03-27T07:50:28.315Z,1007.75
2018-03-27T07:51:28.344Z,1007.79
2018-03-27T07:52:28.358Z,1007.77
2018-03-27T07:53:28.375Z,1007.80
2018-03-27T07:54:28.397Z,1007.71
2018-03-27T07:55:28.413Z,1007.74
2018-03-27T07:56:28.434Z,1007.72
2018-03-27T07:57:28.705Z,1007.71
2018-03-27T07:58:28.469Z,1007.70
2018-03-27T07:59:28.485Z,1007.77
2018-03-27T08:00:28.515Z,1007.79
2018-03-27T08:01:28.523Z,1007.78
2018-03-27T08:02:28.543Z,1007.73
2018-03-27T08:03:28.569Z,1007.74
2018-03-27T08:04:28.584Z,1007.75
2018-03-27T08:05:28.600Z,1007.67
2018-03-27T08:06:28.623Z,1007.66
2018-03-27T08:07:28.633Z,1007.68
2018-03-27T08:08:28.655Z,1007.67
2018-03-27T08:09:28.676Z,1007.73
2018-03-27T08:10:28.698Z,1007.69
2018-03-27T08:11:28.708Z,1007.82
2018-03-27T08:12:28.732Z,1008.03
2018-03-27T08:13:28.742Z,1007.71
2018-03-27T08:14:28.763Z,1007.50
2018-03-27T08:15:28.785Z,1007.48
2018-03-27T08:16:28.803Z,1007.57
2018-03-27T08:17:28.828Z,1007.50
2018-03-27T08:18:28.889Z,1007.53
2018-03-27T08:19:28.859Z,1007.54
2018-03-27T08:20:28.885Z,1007.44
2018-03-27T08:21:28.902Z,1007.42
2018-03-27T08:22:28.916Z,1007.35
2018-03-27T08:23:28.943Z,1007.38
2018-03-27T08:24:28.965Z,1007.36
2018-03-27T08:25:28.989Z,1007.41
2018-03-27T08:26:28.998Z,1007.39
2018-03-27T08:27:29.025Z,1007.36
2018-03-27T08:28:29.031Z,1007.33
2018-03-27T08:29:29.057Z,1007.28
2018-03-27T08:30:29.072Z,1007.34
2018-03-27T08:31:29.088Z,1007.31
2018-03-27T08:32:29.117Z,1007.27
2018-03-27T08:33:29.137Z,1007.30
2018-03-27T08:34:29.144Z,1007.30
2018-03-27T08:35:29.174Z,1007.32
2018-03-27T08:36:29.238Z,1007.36
2018-03-27T08:37:29.211Z,1007.32
2018-03-27T08:38:29.227Z,1007.31
2018-03-27T08:39:29.239Z,1007.29
2018-03-27T08:40:29.266Z,1007.27
2018-03-27T08:41:29.275Z,1007.26
2018-03-27T08:42:29.304Z,1007.21
2018-03-27T08:43:29.315Z,1007.23
2018-03-27T08:44:29.342Z,1007.29
2018-03-27T08:45:29.357Z,1007.26
2018-03-27T08:46:29.370Z,1007.28
2018-03-27T08:47:29.391Z,1007.29
2018-03-27T08:48:29.416Z,1007.21
2018-03-27T08:49:29.434Z,1007.29
2018-03-27T08:50:29.450Z,1007.25
2018-03-27T08:51:29.467Z,1007.19
2018-03-27T08:52:29.484Z,1007.22
2018-03-27T08:53:29.514Z,1007.20
2018-03-27T08:54:29.523Z,1007.15
2018-03-27T08:55:29.545Z,1007.18
2018-03-27T08:56:29.567Z,1007.18
2018-03-27T08:57:29.580Z,1007.28
2018-03-27T08:58:29.601Z,1007.71
2018-03-27T08:59:29.623Z,1007.85
2018-03-27T09:00:29.638Z,1007.58
2018-03-27T09:01:29.661Z,1007.71
2018-03-27T09:02:29.674Z,1007.96
2018-03-27T09:03:29.705Z,1007.90
2018-03-27T09:04:29.717Z,1007.64
2018-03-27T09:05:29.745Z,1007.40
2018-03-27T09:06:29.759Z,1007.40
2018-03-27T09:07:29.784Z,1007.29
2018-03-27T09:08:29.802Z,1007.58
2018-03-27T09:09:29.826Z,1007.77
2018-03-27T09:10:29.848Z,1007.65
2018-03-27T09:11:29.867Z,1007.64
2018-03-27T09:12:29.894Z,1007.59
2018-03-27T09:13:29.912Z,1007.26
2018-03-27T09:14:29.932Z,1007.53
2018-03-27T09:15:29.964Z,1007.28
2018-03-27T09:16:29.978Z,1007.57
2018-03-27T09:17:30.005Z,1007.36
2018-03-27T09:18:30.027Z,1007.47
2018-03-27T09:19:30.048Z,1007.44
2018-03-27T09:20:30.076Z,1007.51
2018-03-27T09:21:30.101Z,1007.51
2018-03-27T09:22:30.124Z,1007.46
2018-03-27T09:23:30.153Z,1007.44
2018-03-27T09:24:30.172Z,1007.49
2018-03-27T09:25:30.202Z,1007.51
2018-03-27T09:26:30.226Z,1007.39
2018-03-27T09:27:30.246Z,1007.39
2018-03-27T09:28:30.278Z,1007.53
2018-03-27T09:29:30.292Z,1007.45
2018-03-27T09:30:30.329Z,1007.36
2018-03-27T09:31:30.344Z,1007.34
2018-03-27T09:32:30.379Z,1007.37
2018-03-27T09:33:30.395Z,1007.40
2018-03-27T09:34:30.422Z,1007.32
2018-03-27T09:35:30.456Z,1007.35
2018-03-27T09:36:30.473Z,1007.35
2018-03-27T09:37:30.512Z,1007.31
2018-03-27T09:38:30.534Z,1007.38
2018-03-27T09:39:30.551Z,1007.38
2018-03-27T09:40:30.581Z,1007.30
2018-03-27T09:41:30.610Z,1007.43
2018-03-27T09:42:30.630Z,1007.26
2018-03-27T09:43:30.665Z,1007.28
2018-03-27T09:44:30.694Z,1007.25
2018-03-27T09:45:30.733Z,1007.19
2018-03-27T09:46:30.745Z,1007.21
2018-03-27T09:47:30.773Z,1007.23
2018-03-27T09:48:30.940Z,1007.23
2018-03-27T09:49:30.829Z,1007.26
2018-03-27T09:50:30.856Z,1007.27
2018-03-27T09:51:30.875Z,1007.32
2018-03-27T09:52:30.910Z,1007.29
2018-03-27T09:53:30.928Z,1007.22
2018-03-27T09:54:30.955Z,1007.18
2018-03-27T09:55:30.992Z,1007.13
2018-03-27T09:56:31.020Z,1007.11
2018-03-27T09:57:31.044Z,1006.81
2018-03-27T09:58:31.089Z,1006.97
2018-03-27T09:59:31.094Z,1007.12
2018-03-27T10:00:31.123Z,1007.19
2018-03-27T10:01:31.153Z,1007.16
2018-03-27T10:02:31.180Z,1007.16
2018-03-27T10:03:31.211Z,1007.17
2018-03-27T10:04:31.236Z,1007.15
2018-03-27T10:05:31.260Z,1007.13
2018-03-27T10:06:31.296Z,1007.02
2018-03-27T10:07:31.320Z,1006.94
2018-03-27T10:08:31.344Z,1006.84
2018-03-27T10:09:31.380Z,1006.97
2018-03-27T10:10:31.403Z,1006.98
2018-03-27T10:11:31.436Z,1006.90
2018-03-27T10:12:31.465Z,1006.93
2018-03-27T10:13:31.484Z,1006.89
2018-03-27T10:14:31.518Z,1006.91
2018-03-27T10:15:31.544Z,1006.41
2018-03-27T10:16:31.569Z,1006.62
2018-03-27T10:17:31.606Z,1006.76
2018-03-27T10:18:31.625Z,1006.77
2018-03-27T10:19:31.662Z,1006.78
2018-03-27T10:20:31.685Z,1006.78
2018-03-27T10:21:31.713Z,1006.82
2018-03-27T10:22:31.743Z,1006.79
2018-03-27T10:23:31.767Z,1006.81
2018-03-27T10:24:31.800Z,1006.81
2018-03-27T10:25:31.830Z,1006.80
2018-03-27T10:26:31.858Z,1006.78
2018-03-27T10:27:31.883Z,1006.74
2018-03-27T10:28:31.916Z,1006.63
2018-03-27T10:29:31.940Z,1006.56
2018-03-27T10:30:31.968Z,1006.50
2018-03-27T10:31:32.000Z,1006.68
2018-03-27T10:32:32.026Z,1006.58
2018-03-27T10:33:32.096Z,1006.57
2018-03-27T10:34:32.088Z,1006.52
2018-03-27T10:35:32.109Z,1006.59
2018-03-27T10:36:32.146Z,1006.47
2018-03-27T10:37:32.168Z,1006.45
2018-03-27T10:38:32.209Z,1006.37
2018-03-27T10:39:32.233Z,1006.43
2018-03-27T10:40:32.254Z,1006.33
2018-03-27T10:41:32.293Z,1006.36
2018-03-27T10:42:32.314Z,1006.36
2018-03-27T10:43:32.346Z,1006.35
2018-03-27T10:44:32.373Z,1006.30
2018-03-27T10:45:32.402Z,1005.92
2018-03-27T10:46:32.436Z,1005.67
2018-03-27T10:47:32.455Z,1006.06
2018-03-27T10:48:32.487Z,1006.13
2018-03-27T10:49:32.511Z,1005.56
2018-03-27T10:50:32.537Z,1005.47
2018-03-27T10:51:32.572Z,1005.57
2018-03-27T10:52:32.592Z,1005.45
2018-03-27T10:53:32.629Z,1005.38
2018-03-27T10:54:32.655Z,1005.33
2018-03-27T10:55:32.675Z,1005.30
2018-03-27T10:56:32.711Z,1005.30
2018-03-27T10:57:32.728Z,1005.28
2018-03-27T10:58:32.761Z,1005.29
2018-03-27T10:59:32.783Z,1005.24
2018-03-27T11:00:32.813Z,1005.16
2018-03-27T11:01:32.834Z,1005.12
2018-03-27T11:02:32.861Z,1005.12
2018-03-27T11:03:32.893Z,1005.14
2018-03-27T11:04:32.917Z,1005.10
2018-03-27T11:05:32.940Z,1005.07
2018-03-27T11:06:32.969Z,1005.16
2018-03-27T11:07:32.986Z,1005.12
2018-03-27T11:08:33.019Z,1005.13
2018-03-27T11:09:33.041Z,1005.14
2018-03-27T11:10:33.061Z,1005.21
2018-03-27T11:11:33.087Z,1005.18
2018-03-27T11:12:33.118Z,1005.22
2018-03-27T11:13:33.136Z,1005.54
2018-03-27T11:14:33.160Z,1005.39
2018-03-27T11:15:33.188Z,1005.24
2018-03-27T11:16:33.209Z,1005.07
2018-03-27T11:17:33.241Z,1005.12
2018-03-27T11:18:33.260Z,1005.16
2018-03-27T11:19:33.281Z,1005.17
2018-03-27T11:20:33.308Z,1005.11
2018-03-27T11:21:33.329Z,1004.98
2018-03-27T11:22:33.353Z,1005.07
2018-03-27T11:23:33.383Z,1005.06
2018-03-27T11:24:33.768Z,1004.95
2018-03-27T11:25:33.431Z,1004.89
2018-03-27T11:26:33.453Z,1004.92
2018-03-27T11:27:33.477Z,1004.84
2018-03-27T11:28:33.502Z,1004.92
2018-03-27T11:29:33.516Z,1005.00
2018-03-27T11:30:33.547Z,1004.92
2018-03-27T11:31:33.567Z,1004.85
2018-03-27T11:32:33.593Z,1004.84
2018-03-27T11:33:33.611Z,1004.75
2018-03-27T11:34:33.636Z,1004.82
2018-03-27T11:35:33.664Z,1005.01
2018-03-27T11:36:33.682Z,1004.86
2018-03-27T11:37:33.707Z,1004.75
2018-03-27T11:38:33.734Z,1004.72
2018-03-27T11:39:33.749Z,1004.64
2018-03-27T11:40:33.782Z,1004.61
2018-03-27T11:41:33.801Z,1004.69
2018-03-27T11:42:33.819Z,1004.82
2018-03-27T11:43:33.843Z,1004.85
2018-03-27T11:44:33.874Z,1004.86
2018-03-27T11:45:33.889Z,1004.78
2018-03-27T11:46:33.912Z,1004.68
2018-03-27T11:47:33.938Z,1004.81
2018-03-27T11:48:33.964Z,1004.59
2018-03-27T11:49:33.978Z,1004.53
2018-03-27T11:50:34.032Z,1004.82
2018-03-27T11:51:34.026Z,1004.86
2018-03-27T11:52:34.048Z,1004.82
2018-03-27T11:53:34.080Z,1004.81
2018-03-27T11:54:34.175Z,1004.76
2018-03-27T11:55:34.121Z,1004.73
2018-03-27T11:56:34.147Z,1004.59
2018-03-27T11:57:34.173Z,1004.67
2018-03-27T11:58:34.191Z,1004.61
2018-03-27T11:59:34.212Z,1004.67
2018-03-27T12:00:34.244Z,1004.67
2018-03-27T12:01:34.294Z,1004.63
2018-03-27T12:02:34.284Z,1004.78
2018-03-27T12:03:34.319Z,1004.83
2018-03-27T12:04:34.335Z,1004.74
2018-03-27T12:05:34.364Z,1004.75